createdAt,value
2019-04-16T00:00:01.473Z,4.67
2019-04-16T00:01:01.472Z,4.65
2019-04-16T00:02:01.589Z,4.69
2019-04-16T00:03:01.532Z,4.67
2019-04-16T00:04:01.596Z,4.66
2019-04-16T00:05:02.580Z,4.58
2019-04-16T00:06:04.423Z,4.6
2019-04-16T00:07:16.229Z,4.63
2019-04-16T00:08:01.723Z,4.58
2019-04-16T00:09:02.999Z,4.45
2019-04-16T00:10:16.275Z,4.45
2019-04-16T00:11:01.379Z,4.48
2019-04-16T00:12:01.643Z,4.44
2019-04-16T00:13:01.661Z,4.47
2019-04-16T00:14:05.636Z,4.45
2019-04-16T00:15:01.699Z,4.33
2019-04-16T00:16:01.465Z,4.36
2019-04-16T00:17:01.719Z,4.36
2019-04-16T00:18:01.744Z,4.36
2019-04-16T00:19:08.538Z,4.4
2019-04-16T00:20:05.623Z,4.33
2019-04-16T00:21:01.783Z,4.42
2019-04-16T00:22:01.996Z,4.3
2019-04-16T00:24:01.841Z,4.3
2019-04-16T00:25:01.842Z,4.36
2019-04-16T00:27:04.441Z,4.37
2019-04-16T00:28:05.176Z,4.34
2019-04-16T00:29:06.505Z,4.32
2019-04-16T00:30:06.605Z,4.3
2019-04-16T00:31:04.626Z,4.24
2019-04-16T00:32:01.956Z,4.24
2019-04-16T00:33:02.127Z,4.36
2019-04-16T00:34:02.173Z,4.36
2019-04-16T00:35:02.004Z,4.27
2019-04-16T00:36:02.010Z,4.26
2019-04-16T00:37:20.238Z,4.18
2019-04-16T00:38:02.042Z,4.23
2019-04-16T00:39:02.063Z,4.29
2019-04-16T00:41:16.752Z,4.2
2019-04-16T00:42:02.192Z,4.2
2019-04-16T00:43:02.195Z,4.16
2019-04-16T00:44:02.273Z,4.09
2019-04-16T00:46:02.350Z,4.15
2019-04-16T00:47:02.183Z,4.14
2019-04-16T00:48:02.402Z,4.08
2019-04-16T00:49:02.468Z,4.06
2019-04-16T00:50:04.254Z,4.05
2019-04-16T00:51:16.909Z,4.14
2019-04-16T00:52:16.921Z,4.14
2019-04-16T00:53:16.935Z,4.09
2019-04-16T00:54:02.285Z,4.14
2019-04-16T00:55:02.326Z,3.98
2019-04-16T00:56:02.315Z,4
2019-04-16T00:57:02.425Z,4.04
2019-04-16T00:58:02.459Z,4.09
2019-04-16T00:59:02.463Z,4
2019-04-16T01:00:02.455Z,3.97
2019-04-16T01:01:16.812Z,4.05
2019-04-16T01:03:02.634Z,4.09
2019-04-16T01:05:02.713Z,3.94
2019-04-16T01:06:06.716Z,3.96
2019-04-16T01:07:02.521Z,3.98
2019-04-16T01:08:02.656Z,4.02
2019-04-16T01:09:02.671Z,3.88
2019-04-16T01:10:02.533Z,3.91
2019-04-16T01:11:02.306Z,3.91
2019-04-16T01:12:02.570Z,3.87
2019-04-16T01:13:17.240Z,3.86
2019-04-16T01:15:05.622Z,3.79
2019-04-16T01:16:07.538Z,3.79
2019-04-16T01:17:06.611Z,3.75
2019-04-16T01:19:02.663Z,3.76
2019-04-16T01:20:03.023Z,3.7
2019-04-16T01:21:03.055Z,3.78
2019-04-16T01:22:02.995Z,3.79
2019-04-16T01:23:02.721Z,3.72
2019-04-16T01:24:02.738Z,3.68
2019-04-16T01:25:02.770Z,3.58
2019-04-16T01:26:02.766Z,3.68
2019-04-16T01:27:03.949Z,3.73
2019-04-16T01:28:05.984Z,3.78
2019-04-16T01:29:17.475Z,3.72
2019-04-16T01:31:06.877Z,3.8
2019-04-16T01:32:02.858Z,3.73
2019-04-16T01:33:02.911Z,3.73
2019-04-16T01:34:03.148Z,3.61
2019-04-16T01:35:02.908Z,3.58
2019-04-16T01:36:02.921Z,3.66
2019-04-16T01:37:02.687Z,3.65
2019-04-16T01:38:03.047Z,3.55
2019-04-16T01:39:20.754Z,3.62
2019-04-16T01:40:03.236Z,3.66
2019-04-16T01:41:02.999Z,3.6
2019-04-16T01:42:03.020Z,3.57
2019-04-16T01:43:17.683Z,3.58
2019-04-16T01:44:02.987Z,3.66
2019-04-16T01:45:17.713Z,3.58
2019-04-16T01:46:06.886Z,3.58
2019-04-16T01:47:06.272Z,3.62
2019-04-16T01:48:06.631Z,3.55
2019-04-16T01:49:03.108Z,3.48
2019-04-16T01:51:03.306Z,3.48
2019-04-16T01:52:03.155Z,3.47
2019-04-16T01:53:03.176Z,3.52
2019-04-16T01:54:03.273Z,3.52
2019-04-16T01:56:03.379Z,3.47
2019-04-16T01:57:05.267Z,3.39
2019-04-16T01:58:06.811Z,3.39
2019-04-16T01:59:07.093Z,3.43
2019-04-16T02:00:06.696Z,3.35
2019-04-16T02:01:17.950Z,3.42
2019-04-16T02:02:03.302Z,3.32
2019-04-16T02:03:03.331Z,3.36
2019-04-16T02:04:03.762Z,3.31
2019-04-16T02:05:03.487Z,3.43
2019-04-16T02:06:03.641Z,3.33
2019-04-16T02:08:04.076Z,3.43
2019-04-16T02:09:06.708Z,3.39
2019-04-16T02:10:08.902Z,3.33
2019-04-16T02:11:03.514Z,3.43
2019-04-16T02:12:03.577Z,3.32
2019-04-16T02:13:03.466Z,3.43
2019-04-16T02:14:22.005Z,3.29
2019-04-16T02:16:18.170Z,3.43
2019-04-16T02:17:03.525Z,3.35
2019-04-16T02:18:04.762Z,3.32
2019-04-16T02:19:06.787Z,3.33
2019-04-16T02:20:24.592Z,3.32
2019-04-16T02:22:03.603Z,3.36
2019-04-16T02:24:03.629Z,3.45
2019-04-16T02:25:03.665Z,3.39
2019-04-16T02:26:03.666Z,3.33
2019-04-16T02:27:18.334Z,3.39
2019-04-16T02:29:04.380Z,3.35
2019-04-16T02:30:08.710Z,3.29
2019-04-16T02:31:03.750Z,3.31
2019-04-16T02:32:04.310Z,3.23
2019-04-16T02:33:03.785Z,3.2
2019-04-16T02:34:03.821Z,3.29
2019-04-16T02:35:03.793Z,3.18
2019-04-16T02:36:03.814Z,3.24
2019-04-16T02:37:22.296Z,3.2
2019-04-16T02:38:18.500Z,3.17
2019-04-16T02:39:04.436Z,3.2
2019-04-16T02:40:03.970Z,3.18
2019-04-16T02:41:04.538Z,3.2
2019-04-16T02:42:04.037Z,3.13
2019-04-16T02:43:10.575Z,3.23
2019-04-16T02:44:03.933Z,3.14
2019-04-16T02:45:22.438Z,3.24
2019-04-16T02:46:03.960Z,3.2
2019-04-16T02:47:11.301Z,3.05
2019-04-16T02:48:19.775Z,3.11
2019-04-16T02:49:04.566Z,3.14
2019-04-16T02:50:04.066Z,3.15
2019-04-16T02:51:11.294Z,3.13
2019-04-16T02:53:04.167Z,3.11
2019-04-16T02:54:04.658Z,3.21
2019-04-16T02:55:11.139Z,3.11
2019-04-16T02:56:04.101Z,3.1
2019-04-16T02:57:04.568Z,3.18
2019-04-16T02:58:06.035Z,3.17
2019-04-16T02:59:13.691Z,3.18
2019-04-16T03:00:04.157Z,3.1
2019-04-16T03:01:04.324Z,3.06
2019-04-16T03:02:22.638Z,3.03
2019-04-16T03:03:04.193Z,3.06
2019-04-16T03:04:18.884Z,3.03
2019-04-16T03:05:04.226Z,3.1
2019-04-16T03:06:06.300Z,3.11
2019-04-16T03:07:07.809Z,3.02
2019-04-16T03:08:08.736Z,3.03
2019-04-16T03:09:05.336Z,2.92
2019-04-16T03:10:06.679Z,2.96
2019-04-16T03:11:04.416Z,3.05
2019-04-16T03:12:04.326Z,2.95
2019-04-16T03:14:04.314Z,3
2019-04-16T03:15:06.756Z,2.99
2019-04-16T03:17:19.058Z,2.9
2019-04-16T03:18:04.908Z,2.97
2019-04-16T03:19:04.436Z,2.89
2019-04-16T03:20:20.693Z,2.95
2019-04-16T03:21:04.607Z,2.95
2019-04-16T03:22:07.559Z,2.96
2019-04-16T03:23:24.788Z,2.99
2019-04-16T03:24:07.934Z,2.97
2019-04-16T03:25:04.734Z,2.99
2019-04-16T03:27:07.466Z,2.97
2019-04-16T03:28:04.749Z,2.96
2019-04-16T03:29:04.326Z,2.93
2019-04-16T03:31:19.265Z,3
2019-04-16T03:32:04.854Z,2.85
2019-04-16T03:33:14.751Z,2.92
2019-04-16T03:34:04.829Z,2.89
2019-04-16T03:35:04.655Z,2.84
2019-04-16T03:36:19.336Z,2.87
2019-04-16T03:37:06.819Z,2.95
2019-04-16T03:38:09.109Z,2.9
2019-04-16T03:39:04.714Z,2.81
2019-04-16T03:40:24.593Z,2.82
2019-04-16T03:41:04.747Z,2.87
2019-04-16T03:42:04.759Z,2.85
2019-04-16T03:44:08.882Z,2.89
2019-04-16T03:45:19.466Z,2.82
2019-04-16T03:47:20.033Z,2.89
2019-04-16T03:48:20.570Z,2.87
2019-04-16T03:49:04.857Z,2.82
2019-04-16T03:50:05.042Z,2.82
2019-04-16T03:51:19.554Z,2.84
2019-04-16T03:52:10.198Z,2.81
2019-04-16T03:53:04.918Z,2.81
2019-04-16T03:54:07.553Z,2.77
2019-04-16T03:55:04.946Z,2.81
2019-04-16T03:56:04.988Z,2.82
2019-04-16T03:57:07.488Z,2.82
2019-04-16T03:58:10.241Z,2.77
2019-04-16T04:00:11.006Z,2.82
2019-04-16T04:01:05.090Z,2.78
2019-04-16T04:02:05.131Z,2.74
2019-04-16T04:03:05.096Z,2.79
2019-04-16T04:04:05.121Z,2.77
2019-04-16T04:05:09.412Z,2.78
2019-04-16T04:06:06.614Z,2.82
2019-04-16T04:07:05.497Z,2.72
2019-04-16T04:08:05.505Z,2.75
2019-04-16T04:09:05.500Z,2.84
2019-04-16T04:10:05.164Z,2.81
2019-04-16T04:11:08.831Z,2.82
2019-04-16T04:12:05.187Z,2.77
2019-04-16T04:14:05.294Z,2.74
2019-04-16T04:15:05.232Z,2.74
2019-04-16T04:16:21.606Z,2.82
2019-04-16T04:17:10.286Z,2.85
2019-04-16T04:18:19.937Z,2.92
2019-04-16T04:19:05.301Z,2.92
2019-04-16T04:20:05.316Z,2.77
2019-04-16T04:21:05.327Z,2.87
2019-04-16T04:22:05.333Z,2.87
2019-04-16T04:23:20.005Z,2.9
2019-04-16T04:24:20.432Z,2.87
2019-04-16T04:26:10.672Z,2.99
2019-04-16T04:27:05.407Z,2.95
2019-04-16T04:28:05.423Z,2.92
2019-04-16T04:29:08.598Z,2.84
2019-04-16T04:30:05.446Z,2.99
2019-04-16T04:32:08.364Z,2.93
2019-04-16T04:33:10.424Z,2.9
2019-04-16T04:34:05.504Z,2.9
2019-04-16T04:35:05.555Z,2.97
2019-04-16T04:36:05.556Z,2.95
2019-04-16T04:37:05.552Z,2.85
2019-04-16T04:38:08.822Z,2.99
2019-04-16T04:39:20.467Z,2.96
2019-04-16T04:40:05.593Z,3
2019-04-16T04:42:05.623Z,3.03
2019-04-16T04:43:06.624Z,3.15
2019-04-16T04:44:10.361Z,3.21
2019-04-16T04:45:11.022Z,3.29
2019-04-16T04:46:05.710Z,3.5
2019-04-16T04:47:05.698Z,3.68
2019-04-16T04:48:05.712Z,4.05
2019-04-16T04:49:05.725Z,4.45
2019-04-16T04:50:08.911Z,4.96
2019-04-16T04:51:11.838Z,5.43
2019-04-16T04:52:05.768Z,5.71
2019-04-16T04:53:05.780Z,6.09
2019-04-16T04:54:05.800Z,6.54
2019-04-16T04:55:20.474Z,6.85
2019-04-16T04:56:05.835Z,7.13
2019-04-16T04:57:05.863Z,7.49
2019-04-16T04:59:09.510Z,7.23
2019-04-16T05:00:10.299Z,7.64
2019-04-16T05:02:05.935Z,8.2
2019-04-16T05:03:05.958Z,8.47
2019-04-16T05:04:07.060Z,8.38
2019-04-16T05:05:05.995Z,8.58
2019-04-16T05:06:06.012Z,8.98
2019-04-16T05:07:09.597Z,9.21
2019-04-16T05:08:20.713Z,9.64
2019-04-16T05:09:06.280Z,9.84
2019-04-16T05:10:09.400Z,9.64
2019-04-16T05:11:20.773Z,9.69
2019-04-16T05:12:07.976Z,9.81
2019-04-16T05:13:06.151Z,10.15
2019-04-16T05:14:06.175Z,10.6
2019-04-16T05:15:08.698Z,11
2019-04-16T05:16:09.467Z,11.07
2019-04-16T05:17:10.822Z,11.15
2019-04-16T05:18:09.683Z,11.21
2019-04-16T05:19:06.379Z,10.89
2019-04-16T05:20:06.331Z,10.33
2019-04-16T05:21:06.426Z,10.29
2019-04-16T05:22:06.358Z,9.89
2019-04-16T05:23:24.608Z,9.81
2019-04-16T05:24:06.397Z,9.76
2019-04-16T05:25:07.342Z,9.78
2019-04-16T05:26:21.103Z,10.17
2019-04-16T05:27:10.415Z,10.34
2019-04-16T05:28:21.158Z,10.29
2019-04-16T05:29:06.257Z,10.17
2019-04-16T05:30:06.547Z,10.26
2019-04-16T05:31:06.553Z,10.33
2019-04-16T05:32:06.590Z,10.26
2019-04-16T05:35:11.692Z,10.29
2019-04-16T05:36:06.670Z,10.41
2019-04-16T05:37:06.696Z,10.92
2019-04-16T05:38:06.715Z,11.4
2019-04-16T05:39:08.507Z,11.67
2019-04-16T05:42:06.824Z,12.46
2019-04-16T05:43:06.831Z,12.6
2019-04-16T05:44:06.937Z,12.56
2019-04-16T05:45:08.650Z,12.49
2019-04-16T05:46:11.490Z,12.47
2019-04-16T05:47:06.940Z,12.54
2019-04-16T05:48:06.960Z,12.85
2019-04-16T05:49:06.982Z,12.7
2019-04-16T05:50:07.017Z,12.95
2019-04-16T05:51:07.030Z,13.11
2019-04-16T05:52:08.748Z,13.36
2019-04-16T05:53:12.766Z,13.41
2019-04-16T05:54:08.401Z,13.54
2019-04-16T05:56:07.154Z,13.42
2019-04-16T05:57:07.185Z,13.33
2019-04-16T05:58:21.872Z,13.63
2019-04-16T05:59:08.115Z,13.55
2019-04-16T06:01:07.322Z,13.44
2019-04-16T06:02:07.305Z,13.81
2019-04-16T06:03:07.335Z,13.89
2019-04-16T06:04:07.359Z,14.17
2019-04-16T06:05:07.390Z,14.39
2019-04-16T06:06:07.423Z,14.22
2019-04-16T06:07:12.151Z,14.2
2019-04-16T06:09:11.561Z,13.44
2019-04-16T06:10:09.392Z,13.22
2019-04-16T06:11:07.548Z,13.52
2019-04-16T06:12:10.735Z,13.75
2019-04-16T06:13:09.346Z,14.12
2019-04-16T06:14:25.392Z,13.84
2019-04-16T06:15:07.663Z,13.87
2019-04-16T06:16:07.682Z,14.15
2019-04-16T06:18:10.241Z,14.72
2019-04-16T06:19:08.393Z,14.77
2019-04-16T06:20:07.797Z,14.69
2019-04-16T06:21:07.841Z,14.5
2019-04-16T06:22:23.654Z,14.17
2019-04-16T06:23:07.878Z,14.24
2019-04-16T06:24:08.956Z,14.42
2019-04-16T06:25:13.754Z,14.28
2019-04-16T06:26:14.222Z,14.5
2019-04-16T06:27:07.989Z,14.54
2019-04-16T06:29:08.047Z,13.89
2019-04-16T06:30:22.737Z,14.18
2019-04-16T06:32:13.400Z,14.22
2019-04-16T06:33:08.161Z,14.51
2019-04-16T06:34:08.186Z,14.62
2019-04-16T06:35:08.226Z,14.92
2019-04-16T06:36:08.250Z,14.84
2019-04-16T06:37:08.280Z,14.98
2019-04-16T06:38:08.310Z,15.21
2019-04-16T06:40:08.372Z,14.72
2019-04-16T06:41:09.051Z,14.57
2019-04-16T06:42:23.251Z,14.77
2019-04-16T06:43:08.445Z,14.64
2019-04-16T06:44:09.072Z,14.58
2019-04-16T06:45:09.790Z,14.65
2019-04-16T06:46:23.207Z,14.8
2019-04-16T06:47:13.407Z,15.13
2019-04-16T06:48:12.729Z,15.27
2019-04-16T06:49:08.625Z,15.84
2019-04-16T06:50:08.728Z,15.96
2019-04-16T06:51:11.578Z,16.27
2019-04-16T06:52:08.703Z,16.08
2019-04-16T06:53:08.737Z,15.84
2019-04-16T06:55:08.912Z,15.71
2019-04-16T06:56:12.636Z,15.69
2019-04-16T06:57:09.564Z,15.53
2019-04-16T06:58:08.888Z,15.59
2019-04-16T06:59:08.946Z,15.5
2019-04-16T07:00:12.046Z,15.65
2019-04-16T07:01:25.378Z,15.68
2019-04-16T07:02:12.500Z,15.72
2019-04-16T07:03:09.037Z,16.33
2019-04-16T07:04:29.445Z,16.63
2019-04-16T07:05:09.093Z,16.71
2019-04-16T07:06:09.653Z,16.53
2019-04-16T07:07:12.859Z,16.88
2019-04-16T07:08:09.186Z,17.04
2019-04-16T07:09:08.961Z,17
2019-04-16T07:10:09.242Z,16.5
2019-04-16T07:12:09.293Z,16.33
2019-04-16T07:13:15.278Z,16.14
2019-04-16T07:14:11.465Z,15.92
2019-04-16T07:15:09.382Z,15.69
2019-04-16T07:16:09.415Z,16.15
2019-04-16T07:17:09.447Z,16.76
2019-04-16T07:18:10.624Z,17.14
2019-04-16T07:19:16.723Z,16.79
2019-04-16T07:20:12.993Z,17.18
2019-04-16T07:21:09.567Z,17.23
2019-04-16T07:22:24.264Z,17.19
2019-04-16T07:23:09.623Z,17.26
2019-04-16T07:24:09.731Z,17.25
2019-04-16T07:25:10.766Z,17.54
2019-04-16T07:26:14.649Z,17.48
2019-04-16T07:27:10.276Z,17.41
2019-04-16T07:28:09.770Z,17.49
2019-04-16T07:29:09.989Z,17.31
2019-04-16T07:30:12.695Z,17.08
2019-04-16T07:31:33.061Z,16.64
2019-04-16T07:32:10.704Z,16.93
2019-04-16T07:33:24.590Z,17.07
2019-04-16T07:34:09.970Z,17.19
2019-04-16T07:35:10.331Z,17.64
2019-04-16T07:36:10.040Z,18.08
2019-04-16T07:37:10.041Z,18.1
2019-04-16T07:38:13.987Z,18.21
2019-04-16T07:39:13.323Z,18.41
2019-04-16T07:40:13.880Z,18.52
2019-04-16T07:41:16.726Z,18.41
2019-04-16T07:43:49.821Z,18.11
2019-04-16T07:44:04.016Z,18.12
2019-04-16T07:45:01.044Z,18.15
2019-04-16T07:47:19.603Z,18.32
2019-04-16T07:48:00.481Z,18.82
2019-04-16T07:49:00.500Z,19.14
2019-04-16T07:50:05.807Z,19.06
2019-04-16T07:51:01.509Z,18.8
2019-04-16T07:53:00.618Z,18.21
2019-04-16T07:54:02.615Z,18.02
2019-04-16T07:55:00.971Z,18.11
2019-04-16T07:56:15.378Z,18.17
2019-04-16T07:57:01.148Z,18.51
2019-04-16T07:58:00.827Z,18.57
2019-04-16T07:59:05.252Z,18.51
2019-04-16T08:00:00.829Z,18.82
2019-04-16T08:01:00.856Z,19
2019-04-16T08:02:00.887Z,18.62
2019-04-16T08:03:15.335Z,18.75
2019-04-16T08:04:05.734Z,18.65
2019-04-16T08:05:01.248Z,19.13
2019-04-16T08:06:01.007Z,19.16
2019-04-16T08:07:01.395Z,19.19
2019-04-16T08:08:01.100Z,19.11
2019-04-16T08:09:02.698Z,19.32
2019-04-16T08:10:06.891Z,19.32
2019-04-16T08:11:01.157Z,19.1
2019-04-16T08:12:01.304Z,19.06
2019-04-16T08:13:04.737Z,19.31
2019-04-16T08:14:01.250Z,18.92
2019-04-16T08:15:15.665Z,19.19
2019-04-16T08:16:02.282Z,19.02
2019-04-16T08:17:01.508Z,19.16
2019-04-16T08:18:16.029Z,19.07
2019-04-16T08:19:01.456Z,19.33
2019-04-16T08:20:01.687Z,19.41
2019-04-16T08:21:13.392Z,19.66
2019-04-16T08:22:01.596Z,19.5
2019-04-16T08:23:01.517Z,19.51
2019-04-16T08:24:01.584Z,19.22
2019-04-16T08:25:06.820Z,19.11
2019-04-16T08:26:14.399Z,18.94
2019-04-16T08:28:16.084Z,19.54
2019-04-16T08:29:01.687Z,19.56
2019-04-16T08:30:07.482Z,19.5
2019-04-16T08:31:01.748Z,19.61
2019-04-16T08:32:01.786Z,19.41
2019-04-16T08:33:01.905Z,19.44
2019-04-16T08:34:01.831Z,19.21
2019-04-16T08:35:01.951Z,19.18
2019-04-16T08:36:01.927Z,19.1
2019-04-16T08:37:01.915Z,19.4
2019-04-16T08:38:03.576Z,19.56
2019-04-16T08:39:05.793Z,19.74
2019-04-16T08:40:16.679Z,19.77
2019-04-16T08:41:02.030Z,19.77
2019-04-16T08:43:03.387Z,20.11
2019-04-16T08:44:22.244Z,20.23
2019-04-16T08:45:07.170Z,20.13
2019-04-16T08:46:02.186Z,20.13
2019-04-16T08:47:03.941Z,20.06
2019-04-16T08:48:02.231Z,20.16
2019-04-16T08:49:02.256Z,19.77
2019-04-16T08:50:16.955Z,19.63
2019-04-16T08:51:07.567Z,19.87
2019-04-16T08:52:02.344Z,19.66
2019-04-16T08:53:02.370Z,19.94
2019-04-16T08:54:02.418Z,19.77
2019-04-16T08:55:02.436Z,19.76
2019-04-16T08:56:02.464Z,19.71
2019-04-16T08:57:17.156Z,19.94
2019-04-16T08:58:05.724Z,19.84
2019-04-16T08:59:11.856Z,19.58
2019-04-16T09:01:18.382Z,19.56
2019-04-16T09:02:17.296Z,19.36
2019-04-16T09:03:03.967Z,19.78
2019-04-16T09:04:20.933Z,19.88
2019-04-16T09:05:05.827Z,19.39
2019-04-16T09:06:17.407Z,19.55
2019-04-16T09:07:30.881Z,19.18
2019-04-16T09:08:21.746Z,18.98
2019-04-16T09:09:24.269Z,18.91
2019-04-16T09:10:16.124Z,18.87
2019-04-16T09:11:07.709Z,19.37
2019-04-16T09:12:07.674Z,19.59
2019-04-16T09:13:09.386Z,19.8
2019-04-16T09:14:20.472Z,19.91
2019-04-16T09:15:03.002Z,19.96
2019-04-16T09:16:03.025Z,19.99
2019-04-16T09:17:03.047Z,19.94
2019-04-16T09:18:02.847Z,19.8
2019-04-16T09:19:17.767Z,20.18
2019-04-16T09:20:08.582Z,20.28
2019-04-16T09:21:03.159Z,20.23
2019-04-16T09:22:19.487Z,19.96
2019-04-16T09:23:04.063Z,19.77
2019-04-16T09:24:12.966Z,19.81
2019-04-16T09:25:03.275Z,19.76
2019-04-16T09:26:24.898Z,19.37
2019-04-16T09:27:03.327Z,19.19
2019-04-16T09:28:24.255Z,19.13
2019-04-16T09:29:12.713Z,19.14
2019-04-16T09:31:03.434Z,19.16
2019-04-16T09:32:03.459Z,19.37
2019-04-16T09:33:06.554Z,19.31
2019-04-16T09:34:08.180Z,19.18
2019-04-16T09:35:22.267Z,19.18
2019-04-16T09:36:03.569Z,19.16
2019-04-16T09:37:03.597Z,18.87
2019-04-16T09:38:18.287Z,19.21
2019-04-16T09:39:03.651Z,19.43
2019-04-16T09:40:15.798Z,19.77
2019-04-16T09:41:03.724Z,20.28
2019-04-16T09:42:03.743Z,20.35
2019-04-16T09:43:15.966Z,19.98
2019-04-16T09:44:03.791Z,19.92
2019-04-16T09:46:48.717Z,19.73
2019-04-16T09:47:14.615Z,19.91
2019-04-16T09:48:14.410Z,19.86
2019-04-16T09:49:15.176Z,19.61
2019-04-16T09:50:16.571Z,19.61
2019-04-16T09:52:29.390Z,19.14
2019-04-16T09:53:14.757Z,19.39
2019-04-16T09:54:18.397Z,19.74
2019-04-16T09:55:20.449Z,19.74
2019-04-16T09:57:14.863Z,19.68
2019-04-16T09:58:14.880Z,19.73
2019-04-16T10:00:16.790Z,20.13
2019-04-16T10:01:15.066Z,20.11
2019-04-16T10:02:29.654Z,19.74
2019-04-16T10:03:15.011Z,19.63
2019-04-16T10:04:29.707Z,19.55
2019-04-16T10:05:15.138Z,19.59
2019-04-16T10:06:15.106Z,19.51
2019-04-16T10:07:15.154Z,19.55
2019-04-16T10:09:19.710Z,19.88
2019-04-16T10:10:15.192Z,19.78
2019-04-16T10:11:18.359Z,19.83
2019-04-16T10:13:15.286Z,19.81
2019-04-16T10:14:15.930Z,19.92
2019-04-16T10:15:15.344Z,20.14
2019-04-16T10:16:18.865Z,20.13
2019-04-16T10:17:15.425Z,20.24
2019-04-16T10:18:15.544Z,20.03
2019-04-16T10:19:15.615Z,19.26
2019-04-16T10:20:15.493Z,18.72
2019-04-16T10:21:21.235Z,18.63
2019-04-16T10:22:15.683Z,18.58
2019-04-16T10:23:15.556Z,18.17
2019-04-16T10:24:30.258Z,17.58
2019-04-16T10:25:15.617Z,17.71
2019-04-16T10:26:15.630Z,17.46
2019-04-16T10:27:15.655Z,17.49
2019-04-16T10:28:16.189Z,17.25
2019-04-16T10:29:15.731Z,17.21
2019-04-16T10:30:15.734Z,17.23
2019-04-16T10:31:15.778Z,17.23
2019-04-16T10:32:17.577Z,17.15
2019-04-16T10:33:15.820Z,17.19
2019-04-16T10:34:15.831Z,17.04
2019-04-16T10:35:15.852Z,17.07
2019-04-16T10:36:15.888Z,17.16
2019-04-16T10:37:15.936Z,17.28
2019-04-16T10:38:18.759Z,17.31
2019-04-16T10:39:15.982Z,17.3
2019-04-16T10:41:16.011Z,17.25
2019-04-16T10:42:16.026Z,17.22
2019-04-16T10:43:16.085Z,17.22
2019-04-16T10:44:16.057Z,17.18
2019-04-16T10:45:16.119Z,17.01
2019-04-16T10:46:16.171Z,17.06
2019-04-16T10:47:19.779Z,16.93
2019-04-16T10:48:16.156Z,16.96
2019-04-16T10:49:16.196Z,17.21
2019-04-16T10:50:16.254Z,17.19
2019-04-16T10:51:20.239Z,17.23
2019-04-16T10:52:16.265Z,17.21
2019-04-16T10:53:16.307Z,17.19
2019-04-16T10:54:16.353Z,17.16
2019-04-16T10:55:21.085Z,17.15
2019-04-16T10:56:31.143Z,17.18
2019-04-16T10:57:16.399Z,17.23
2019-04-16T10:58:31.071Z,17.19
2019-04-16T10:59:16.456Z,17.16
2019-04-16T11:00:16.478Z,16.81
2019-04-16T11:01:16.521Z,16.82
2019-04-16T11:02:16.647Z,16.85
2019-04-16T11:03:16.578Z,16.85
2019-04-16T11:04:16.601Z,16.81
2019-04-16T11:05:21.044Z,16.81
2019-04-16T11:06:16.640Z,16.94
2019-04-16T11:07:16.649Z,17.04
2019-04-16T11:08:16.697Z,16.89
2019-04-16T11:09:16.752Z,16.97
2019-04-16T11:10:16.908Z,17.12
2019-04-16T11:11:16.485Z,17.12
2019-04-16T11:12:31.402Z,17.3
2019-04-16T11:13:16.809Z,17.41
2019-04-16T11:14:16.806Z,17.52
2019-04-16T11:15:16.858Z,17.58
2019-04-16T11:16:17.181Z,17.44
2019-04-16T11:17:16.896Z,17.4
2019-04-16T11:18:16.943Z,17.28
2019-04-16T11:19:16.946Z,17.21
2019-04-16T11:20:16.936Z,16.98
2019-04-16T11:21:17.057Z,16.86
2019-04-16T11:22:17.050Z,16.73
2019-04-16T11:23:17.451Z,16.66
2019-04-16T11:24:20.379Z,16.57
2019-04-16T11:25:17.075Z,16.25
2019-04-16T11:26:17.296Z,16.34
2019-04-16T11:27:31.747Z,16.42
2019-04-16T11:28:19.232Z,16.39
2019-04-16T11:29:17.223Z,16.5
2019-04-16T11:30:17.221Z,16.79
2019-04-16T11:31:17.560Z,16.91
2019-04-16T11:32:17.070Z,16.89
2019-04-16T11:34:17.592Z,16.85
2019-04-16T11:35:23.774Z,16.82
2019-04-16T11:36:30.507Z,16.85
2019-04-16T11:37:17.596Z,16.93
2019-04-16T11:38:20.044Z,17.19
2019-04-16T11:39:17.540Z,17.14
2019-04-16T11:40:17.410Z,16.93
2019-04-16T11:41:17.554Z,17.07
2019-04-16T11:42:17.280Z,16.66
2019-04-16T11:43:17.518Z,16.66
2019-04-16T11:44:21.924Z,16.75
2019-04-16T11:45:17.573Z,17.03
2019-04-16T11:46:17.557Z,17.04
2019-04-16T11:47:17.961Z,17.03
2019-04-16T11:48:17.661Z,17.23
2019-04-16T11:49:17.729Z,17.33
2019-04-16T11:50:35.801Z,17.18
2019-04-16T11:51:17.713Z,16.97
2019-04-16T11:52:17.676Z,16.93
2019-04-16T11:53:17.733Z,16.85
2019-04-16T11:55:17.822Z,16.93
2019-04-16T11:56:17.792Z,16.93
2019-04-16T11:57:18.734Z,17
2019-04-16T11:58:17.847Z,17.18
2019-04-16T11:59:32.530Z,17.18
2019-04-16T12:00:18.045Z,17.15
2019-04-16T12:01:17.907Z,17.18
2019-04-16T12:02:17.939Z,17
2019-04-16T12:03:17.974Z,17
2019-04-16T12:04:35.770Z,17.07
2019-04-16T12:05:18.005Z,16.98
2019-04-16T12:06:32.600Z,17.07
2019-04-16T12:07:18.333Z,17.06
2019-04-16T12:08:18.097Z,17.21
2019-04-16T12:09:18.151Z,16.94
2019-04-16T12:10:18.109Z,17.06
2019-04-16T12:11:18.375Z,17.01
2019-04-16T12:12:32.837Z,17.21
2019-04-16T12:13:18.310Z,17.18
2019-04-16T12:14:41.828Z,17.03
2019-04-16T12:15:32.914Z,17.07
2019-04-16T12:17:18.296Z,17.11
2019-04-16T12:18:32.963Z,17.23
2019-04-16T12:19:18.395Z,17.12
2019-04-16T12:20:18.430Z,17.06
2019-04-16T12:21:18.448Z,17.14
2019-04-16T12:23:18.445Z,17.06
2019-04-16T12:24:21.108Z,16.97
2019-04-16T12:25:18.576Z,16.88
2019-04-16T12:26:18.477Z,16.7
2019-04-16T12:27:18.543Z,16.66
2019-04-16T12:28:18.582Z,16.64
2019-04-16T12:29:18.603Z,16.61
2019-04-16T12:30:18.611Z,16.79
2019-04-16T12:31:33.261Z,17.14
2019-04-16T12:32:18.646Z,17.15
2019-04-16T12:33:19.397Z,17.25
2019-04-16T12:34:18.740Z,17.38
2019-04-16T12:35:18.741Z,17.25
2019-04-16T12:36:19.679Z,17.51
2019-04-16T12:37:18.736Z,17.54
2019-04-16T12:38:23.381Z,17.64
2019-04-16T12:39:23.695Z,17.64
2019-04-16T12:40:24.104Z,17.62
2019-04-16T12:41:18.841Z,17.51
2019-04-16T12:42:18.823Z,17.4
2019-04-16T12:43:20.847Z,17.52
2019-04-16T12:44:23.919Z,17.51
2019-04-16T12:45:19.224Z,17.44
2019-04-16T12:46:19.006Z,17.3
2019-04-16T12:47:33.634Z,17.14
2019-04-16T12:48:19.037Z,17.26
2019-04-16T12:49:19.064Z,17.3
2019-04-16T12:50:22.030Z,17.21
2019-04-16T12:51:19.081Z,17.26
2019-04-16T12:52:24.776Z,17.25
2019-04-16T12:53:19.164Z,17.14
2019-04-16T12:54:19.201Z,17.16
2019-04-16T12:55:19.162Z,17.15
2019-04-16T12:57:21.441Z,17.08
2019-04-16T12:58:25.623Z,17.16
2019-04-16T12:59:24.570Z,17.22
2019-04-16T13:00:19.214Z,17.3
2019-04-16T13:01:22.169Z,17.33
2019-04-16T13:02:33.926Z,17.38
2019-04-16T13:03:22.886Z,17.55
2019-04-16T13:04:19.311Z,17.44
2019-04-16T13:05:23.405Z,17.31
2019-04-16T13:06:19.362Z,17.22
2019-04-16T13:07:19.439Z,17.25
2019-04-16T13:08:19.398Z,17.19
2019-04-16T13:09:19.428Z,17.14
2019-04-16T13:10:19.447Z,17.22
2019-04-16T13:11:19.230Z,17.21
2019-04-16T13:12:20.404Z,17.11
2019-04-16T13:13:19.521Z,17.25
2019-04-16T13:14:37.622Z,17.11
2019-04-16T13:15:19.568Z,17.01
2019-04-16T13:16:19.585Z,16.94
2019-04-16T13:17:23.514Z,17
2019-04-16T13:18:19.701Z,16.97
2019-04-16T13:19:19.650Z,17.04
2019-04-16T13:20:19.712Z,17.14
2019-04-16T13:21:19.705Z,17.18
2019-04-16T13:22:19.723Z,17.21
2019-04-16T13:23:19.740Z,17.19
2019-04-16T13:24:19.761Z,17.21
2019-04-16T13:25:19.813Z,17.19
2019-04-16T13:26:19.811Z,17.3
2019-04-16T13:27:19.833Z,17.19
2019-04-16T13:28:20.343Z,17.12
2019-04-16T13:29:36.767Z,17.12
2019-04-16T13:30:19.898Z,17.18
2019-04-16T13:31:19.924Z,17.26
2019-04-16T13:32:19.951Z,17.3
2019-04-16T13:33:19.971Z,17.34
2019-04-16T13:34:34.653Z,17.3
2019-04-16T13:35:20.019Z,17.26
2019-04-16T13:36:20.037Z,17.22
2019-04-16T13:37:20.057Z,17.21
2019-04-16T13:38:20.115Z,17.16
2019-04-16T13:39:20.114Z,17.31
2019-04-16T13:40:20.136Z,17.48
2019-04-16T13:41:20.149Z,17.55
2019-04-16T13:42:20.190Z,17.51
2019-04-16T13:43:20.193Z,17.52
2019-04-16T13:44:22.091Z,17.4
2019-04-16T13:45:28.191Z,17.33
2019-04-16T13:46:20.261Z,17.26
2019-04-16T13:47:34.948Z,17.31
2019-04-16T13:48:27.199Z,17.26
2019-04-16T13:49:23.994Z,17.19
2019-04-16T13:51:23.717Z,17.18
2019-04-16T13:53:22.807Z,17.19
2019-04-16T13:54:20.447Z,17.16
2019-04-16T13:55:20.486Z,17.22
2019-04-16T13:56:23.368Z,17.18
2019-04-16T13:57:20.510Z,17.18
2019-04-16T13:58:20.537Z,17.19
2019-04-16T13:59:35.225Z,17.16
2019-04-16T14:00:20.594Z,17.23
2019-04-16T14:01:20.601Z,17.28
2019-04-16T14:02:38.122Z,17.23
2019-04-16T14:03:35.311Z,17.18
2019-04-16T14:04:20.670Z,17.06
2019-04-16T14:05:20.703Z,17.11
2019-04-16T14:06:35.380Z,17.15
2019-04-16T14:07:35.425Z,17.14
2019-04-16T14:08:20.765Z,17.11